createdAt,value
2017-12-03T00:02:27.104Z,80.30
2017-12-03T00:04:54.551Z,80.05
2017-12-03T00:07:21.962Z,78.07
2017-12-03T00:09:49.605Z,76.94
2017-12-03T00:12:17.030Z,75.53
2017-12-03T00:14:44.533Z,74.23
2017-12-03T00:17:11.984Z,76.03
2017-12-03T00:19:39.418Z,78.02
2017-12-03T00:22:06.918Z,79.30
2017-12-03T00:24:34.512Z,80.16
2017-12-03T00:27:02.037Z,80.39
2017-12-03T00:29:29.762Z,81.12
2017-12-03T00:31:57.158Z,81.81
2017-12-03T00:34:24.714Z,81.80
2017-12-03T00:36:52.154Z,82.11
2017-12-03T00:39:19.597Z,81.83
2017-12-03T00:41:47.126Z,81.10
2017-12-03T00:44:14.606Z,81.38
2017-12-03T00:46:41.994Z,81.50
2017-12-03T00:49:09.534Z,80.84
2017-12-03T00:51:36.998Z,80.08
2017-12-03T00:54:04.501Z,80.01
2017-12-03T00:56:32.489Z,81.18
2017-12-03T00:59:00.506Z,81.07
2017-12-03T01:01:27.949Z,81.17
2017-12-03T01:03:55.358Z,81.72
2017-12-03T01:06:22.799Z,81.68
2017-12-03T01:08:50.256Z,81.59
2017-12-03T01:11:17.782Z,81.27
2017-12-03T01:13:45.187Z,80.67
2017-12-03T01:16:12.627Z,80.75
2017-12-03T01:18:40.089Z,80.93
2017-12-03T01:21:07.694Z,81.07
2017-12-03T01:23:35.164Z,81.39
2017-12-03T01:26:02.636Z,81.02
2017-12-03T01:28:30.100Z,81.01
2017-12-03T01:30:57.542Z,80.93
2017-12-03T01:33:24.944Z,80.36
2017-12-03T01:35:52.411Z,80.99
2017-12-03T01:38:19.923Z,80.37
2017-12-03T01:40:47.434Z,80.56
2017-12-03T01:43:14.898Z,78.63
2017-12-03T01:45:42.352Z,78.69
2017-12-03T01:48:09.755Z,78.79
2017-12-03T01:50:37.258Z,78.81
2017-12-03T01:53:04.703Z,79.07
2017-12-03T01:55:32.447Z,79.56
2017-12-03T01:58:01.053Z,80.11
2017-12-03T02:00:28.525Z,79.94
2017-12-03T02:02:55.922Z,80.02
2017-12-03T02:05:23.375Z,79.14
2017-12-03T02:07:50.946Z,79.61
2017-12-03T02:10:18.351Z,80.04
2017-12-03T02:12:45.786Z,79.80
2017-12-03T02:15:13.238Z,79.43
2017-12-03T02:17:40.703Z,79.80
2017-12-03T02:20:08.190Z,79.51
2017-12-03T02:22:35.845Z,78.75
2017-12-03T02:25:03.396Z,78.30
2017-12-03T02:27:31.066Z,78.57
2017-12-03T02:29:58.476Z,78.06
2017-12-03T02:32:26.039Z,78.94
2017-12-03T02:34:53.508Z,79.07
2017-12-03T02:37:21.062Z,78.39
2017-12-03T02:39:48.492Z,78.68
2017-12-03T02:42:15.954Z,78.79
2017-12-03T02:44:43.390Z,78.59
2017-12-03T02:47:10.864Z,78.80
2017-12-03T02:49:38.342Z,78.82
2017-12-03T02:52:05.888Z,79.67
2017-12-03T02:54:33.454Z,79.70
2017-12-03T02:57:01.157Z,80.16
2017-12-03T02:59:28.724Z,80.56
2017-12-03T03:01:56.154Z,80.30
2017-12-03T03:04:23.658Z,80.88
2017-12-03T03:06:51.162Z,81.04
2017-12-03T03:09:18.670Z,81.58
2017-12-03T03:11:46.127Z,81.15
2017-12-03T03:14:13.530Z,81.74
2017-12-03T03:19:14.922Z,81.00
2017-12-03T03:21:42.400Z,81.68
2017-12-03T03:24:09.885Z,81.54
2017-12-03T03:26:37.389Z,81.37
2017-12-03T03:29:04.876Z,81.29
2017-12-03T03:31:32.488Z,81.48
2017-12-03T03:34:00.069Z,81.64
2017-12-03T03:36:27.532Z,82.14
2017-12-03T03:38:54.998Z,82.33
2017-12-03T03:41:22.468Z,81.89
2017-12-03T03:43:49.931Z,81.79
2017-12-03T03:46:17.474Z,82.00
2017-12-03T03:48:44.903Z,81.52
2017-12-03T03:51:12.302Z,81.95
2017-12-03T03:53:39.744Z,82.09
2017-12-03T03:56:07.187Z,81.68
2017-12-03T03:58:34.927Z,82.05
2017-12-03T04:01:03.021Z,82.23
2017-12-03T04:03:30.887Z,82.43
2017-12-03T04:05:58.326Z,82.60
2017-12-03T04:08:25.754Z,82.30
2017-12-03T04:10:53.162Z,82.79
2017-12-03T04:13:20.726Z,82.42
2017-12-03T04:15:48.127Z,82.42
2017-12-03T04:18:15.671Z,83.13
2017-12-03T04:20:43.058Z,83.38
2017-12-03T04:23:10.592Z,83.17
2017-12-03T04:25:37.994Z,82.70
2017-12-03T04:28:05.650Z,82.64
2017-12-03T04:30:33.193Z,82.84
2017-12-03T04:33:00.770Z,82.84
2017-12-03T04:35:28.269Z,82.71
2017-12-03T04:37:55.669Z,82.59
2017-12-03T04:40:23.185Z,82.55
2017-12-03T04:42:50.668Z,82.62
2017-12-03T04:45:18.122Z,83.12
2017-12-03T04:47:45.526Z,82.50
2017-12-03T04:50:12.977Z,82.38
2017-12-03T04:52:40.378Z,81.84
2017-12-03T04:55:07.822Z,82.17
2017-12-03T04:57:35.484Z,82.02
2017-12-03T05:00:02.986Z,82.06
2017-12-03T05:02:30.478Z,81.92
2017-12-03T05:04:57.927Z,81.78
2017-12-03T05:07:25.366Z,82.53
2017-12-03T05:09:52.940Z,82.46
2017-12-03T05:12:20.406Z,81.43
2017-12-03T05:14:47.868Z,81.99
2017-12-03T05:17:15.342Z,82.10
2017-12-03T05:19:42.808Z,82.09
2017-12-03T05:22:10.286Z,82.08
2017-12-03T05:24:37.720Z,82.19
2017-12-03T05:27:05.162Z,82.10
2017-12-03T05:29:32.715Z,82.45
2017-12-03T05:32:00.234Z,81.72
2017-12-03T05:34:27.679Z,81.95
2017-12-03T05:36:55.083Z,81.93
2017-12-03T05:39:22.546Z,82.07
2017-12-03T05:41:49.978Z,82.40
2017-12-03T05:44:17.398Z,82.39
2017-12-03T05:46:44.832Z,82.18
2017-12-03T05:49:12.288Z,82.05
2017-12-03T05:51:39.743Z,81.74
2017-12-03T05:54:07.189Z,81.77
2017-12-03T05:56:34.718Z,82.17
2017-12-03T05:59:02.339Z,82.34
2017-12-03T06:01:29.890Z,82.49
2017-12-03T06:03:57.289Z,82.10
2017-12-03T06:06:24.746Z,82.34
2017-12-03T06:08:52.187Z,82.43
2017-12-03T06:11:19.690Z,82.20
2017-12-03T06:13:47.089Z,81.80
2017-12-03T06:16:14.585Z,81.66
2017-12-03T06:18:41.995Z,81.93
2017-12-03T06:21:09.583Z,81.78
2017-12-03T06:23:37.069Z,82.02
2017-12-03T06:26:04.600Z,81.41
2017-12-03T06:28:32.089Z,81.53
2017-12-03T06:30:59.566Z,81.32
2017-12-03T06:33:27.050Z,81.46
2017-12-03T06:35:54.594Z,81.04
2017-12-03T06:38:22.002Z,81.23
2017-12-03T06:40:49.519Z,81.14
2017-12-03T06:43:16.925Z,81.20
2017-12-03T06:45:44.466Z,81.19
2017-12-03T06:48:11.871Z,80.86
2017-12-03T06:50:39.311Z,81.44
2017-12-03T06:53:06.972Z,80.77
2017-12-03T06:55:34.451Z,80.91
2017-12-03T06:58:01.951Z,80.60
2017-12-03T07:00:29.404Z,80.66
2017-12-03T07:02:56.862Z,81.25
2017-12-03T07:05:24.341Z,81.02
2017-12-03T07:07:51.890Z,80.88
2017-12-03T07:10:19.402Z,80.03
2017-12-03T07:12:46.951Z,80.47
2017-12-03T07:15:14.491Z,80.54
2017-12-03T07:17:41.962Z,80.14
2017-12-03T07:20:09.476Z,79.91
2017-12-03T07:22:37.035Z,79.92
2017-12-03T07:25:04.535Z,79.99
2017-12-03T07:27:32.016Z,80.31
2017-12-03T07:29:59.420Z,80.19
2017-12-03T07:32:26.874Z,79.94
2017-12-03T07:34:54.291Z,79.72
2017-12-03T07:37:21.749Z,79.40
2017-12-03T07:39:49.262Z,85.11
2017-12-03T07:42:16.703Z,83.71
2017-12-03T07:44:44.107Z,77.77
2017-12-03T07:47:11.558Z,77.08
2017-12-03T07:49:38.996Z,85.38
2017-12-03T07:52:06.487Z,77.85
2017-12-03T07:54:33.899Z,79.03
2017-12-03T07:57:01.382Z,81.87
2017-12-03T07:59:28.878Z,82.88
2017-12-03T08:01:56.312Z,85.14
2017-12-03T08:04:23.705Z,84.28
2017-12-03T08:06:51.140Z,84.53
2017-12-03T08:09:18.607Z,81.59
2017-12-03T08:11:46.129Z,83.33
2017-12-03T08:14:13.590Z,81.52
2017-12-03T08:16:41.403Z,80.92
2017-12-03T08:19:08.834Z,81.95
2017-12-03T08:21:36.270Z,81.37
2017-12-03T08:24:03.795Z,76.01
2017-12-03T08:26:31.452Z,76.87
2017-12-03T08:28:58.939Z,73.11
2017-12-03T08:31:26.397Z,71.67
2017-12-03T08:33:53.861Z,69.83
2017-12-03T08:36:21.361Z,70.51
2017-12-03T08:38:48.854Z,70.58
2017-12-03T08:41:16.285Z,69.98
2017-12-03T08:43:43.720Z,70.88
2017-12-03T08:46:11.221Z,70.60
2017-12-03T08:48:38.698Z,68.33
2017-12-03T08:51:06.622Z,68.11
2017-12-03T08:53:34.195Z,68.95
2017-12-03T08:56:01.939Z,69.27
2017-12-03T08:58:29.386Z,71.57
2017-12-03T09:00:56.812Z,67.56
2017-12-03T09:03:24.668Z,67.32
2017-12-03T09:05:52.394Z,67.64
2017-12-03T09:08:20.439Z,67.28
2017-12-03T09:10:48.661Z,65.65
2017-12-03T09:13:17.633Z,65.64
2017-12-03T09:15:45.936Z,66.10
2017-12-03T09:18:14.361Z,64.98
2017-12-03T09:20:43.051Z,65.56
2017-12-03T09:23:11.942Z,66.53
2017-12-03T09:25:41.969Z,65.92
2017-12-03T09:28:11.252Z,65.90
2017-12-03T09:30:40.430Z,65.32
2017-12-03T09:33:09.790Z,64.81
2017-12-03T09:35:40.540Z,63.69
2017-12-03T09:38:09.899Z,64.80
2017-12-03T09:40:39.526Z,64.15
2017-12-03T09:43:09.260Z,64.73
2017-12-03T09:45:38.612Z,62.35
2017-12-03T09:48:06.048Z,62.78
2017-12-03T09:50:33.519Z,62.76
2017-12-03T09:53:00.989Z,63.74
2017-12-03T09:55:28.454Z,63.83
2017-12-03T09:57:55.861Z,61.73
2017-12-03T10:00:23.316Z,63.09
2017-12-03T10:02:50.718Z,61.65
2017-12-03T10:05:19.307Z,62.88
2017-12-03T10:07:48.365Z,62.20
2017-12-03T10:10:17.291Z,61.50
2017-12-03T10:12:46.635Z,61.80
2017-12-03T10:15:15.819Z,62.48
2017-12-03T10:17:44.341Z,62.97
2017-12-03T10:20:13.949Z,62.99
2017-12-03T10:22:42.726Z,62.57
2017-12-03T10:25:12.051Z,61.55
2017-12-03T10:27:41.584Z,61.16
2017-12-03T10:30:10.946Z,63.25
2017-12-03T10:32:39.641Z,62.40
2017-12-03T10:35:10.018Z,62.78
2017-12-03T10:40:42.336Z,63.75
2017-12-03T10:43:11.419Z,62.15
2017-12-03T10:45:41.337Z,62.43
2017-12-03T10:48:10.456Z,63.85
2017-12-03T10:50:41.041Z,61.97
2017-12-03T10:53:11.011Z,62.72
2017-12-03T10:55:41.294Z,61.95
2017-12-03T10:58:10.565Z,60.82
2017-12-03T11:00:41.376Z,61.59
2017-12-03T11:03:13.574Z,61.01
2017-12-03T11:05:43.542Z,64.50
2017-12-03T11:08:13.212Z,62.47
2017-12-03T11:10:44.487Z,61.65
2017-12-03T11:13:14.161Z,62.06
2017-12-03T11:15:45.252Z,61.11
2017-12-03T11:18:15.833Z,61.56
2017-12-03T11:20:45.644Z,74.64
2017-12-03T11:23:15.564Z,60.12
2017-12-03T11:25:45.409Z,62.08
2017-12-03T11:28:15.231Z,61.80
2017-12-03T11:30:45.332Z,62.41
2017-12-03T11:33:15.102Z,62.69
2017-12-03T11:35:46.212Z,61.95
2017-12-03T11:38:18.672Z,62.61
2017-12-03T11:40:48.674Z,63.05
2017-12-03T11:43:19.819Z,62.48
2017-12-03T11:45:53.280Z,62.55
2017-12-03T11:48:29.765Z,62.38
2017-12-03T11:51:01.063Z,64.49
2017-12-03T11:53:32.269Z,63.85
2017-12-03T11:55:59.745Z,63.06
2017-12-03T11:58:27.201Z,63.21
2017-12-03T12:00:54.602Z,63.44
2017-12-03T12:03:22.087Z,63.00
2017-12-03T12:05:49.504Z,63.38
2017-12-03T12:08:16.976Z,63.17
2017-12-03T12:10:44.439Z,63.77
2017-12-03T12:13:11.920Z,63.23
2017-12-03T12:15:39.363Z,63.63
2017-12-03T12:18:06.816Z,63.43
2017-12-03T12:20:34.371Z,63.38
2017-12-03T12:23:01.869Z,63.63
2017-12-03T12:25:29.304Z,62.30
2017-12-03T12:27:56.778Z,62.80
2017-12-03T12:30:24.232Z,63.51
2017-12-03T12:32:51.714Z,63.14
2017-12-03T12:35:19.166Z,63.23
2017-12-03T12:37:46.697Z,63.67
2017-12-03T12:40:14.093Z,64.83
2017-12-03T12:42:41.546Z,64.17
2017-12-03T12:45:08.948Z,64.74
2017-12-03T12:47:36.416Z,65.21
2017-12-03T12:50:03.846Z,65.31
2017-12-03T12:52:31.511Z,65.07
2017-12-03T12:54:58.950Z,65.56
2017-12-03T12:57:26.385Z,65.53
2017-12-03T12:59:53.832Z,66.29
2017-12-03T13:02:21.318Z,66.10
2017-12-03T13:04:48.719Z,65.36
2017-12-03T13:07:16.146Z,65.11
2017-12-03T13:09:43.622Z,66.65
2017-12-03T13:12:11.018Z,66.59
2017-12-03T13:14:38.482Z,68.38
2017-12-03T13:17:05.894Z,68.57
2017-12-03T13:19:33.409Z,68.91
2017-12-03T13:22:00.993Z,69.13
2017-12-03T13:24:28.536Z,69.33
2017-12-03T13:26:55.934Z,70.12
2017-12-03T13:29:23.472Z,69.71
2017-12-03T13:31:50.954Z,70.20
2017-12-03T13:34:18.398Z,70.88
2017-12-03T13:36:45.873Z,71.67
2017-12-03T13:39:13.316Z,71.47
2017-12-03T13:41:40.824Z,71.15
2017-12-03T13:44:08.323Z,72.08
2017-12-03T13:46:35.745Z,72.93
2017-12-03T13:49:03.223Z,73.36
2017-12-03T13:51:30.718Z,73.95
2017-12-03T13:53:58.200Z,73.98
2017-12-03T13:56:25.616Z,75.05
2017-12-03T13:58:53.078Z,75.60
2017-12-03T14:01:20.531Z,76.21
2017-12-03T14:03:48.004Z,76.86
2017-12-03T14:06:15.415Z,76.79
2017-12-03T14:08:42.874Z,77.01
2017-12-03T14:11:10.354Z,78.29
2017-12-03T14:13:37.826Z,78.57
2017-12-03T14:16:05.262Z,79.15
2017-12-03T14:18:32.798Z,79.52
2017-12-03T14:21:00.250Z,79.85
2017-12-03T14:23:27.659Z,79.95
2017-12-03T14:25:55.283Z,80.24
2017-12-03T14:28:22.699Z,80.12
2017-12-03T14:30:50.203Z,81.00
2017-12-03T14:33:17.618Z,80.96
2017-12-03T14:35:45.366Z,81.92
2017-12-03T14:38:12.775Z,82.15
2017-12-03T14:40:40.289Z,81.95
2017-12-03T14:43:07.722Z,82.00
2017-12-03T14:45:35.161Z,82.45
2017-12-03T14:48:02.621Z,81.70
2017-12-03T14:50:30.148Z,82.02
2017-12-03T14:52:57.544Z,81.32
2017-12-03T14:55:24.987Z,81.76
2017-12-03T14:57:52.502Z,82.76
2017-12-03T15:00:19.991Z,82.37
2017-12-03T15:02:47.439Z,82.90
2017-12-03T15:05:14.889Z,82.36
2017-12-03T15:07:42.445Z,82.41
2017-12-03T15:10:09.930Z,82.72
2017-12-03T15:12:37.430Z,82.96
2017-12-03T15:15:04.946Z,83.01
2017-12-03T15:17:32.397Z,83.04
2017-12-03T15:19:59.884Z,82.86
2017-12-03T15:22:27.306Z,83.45
2017-12-03T15:24:54.768Z,83.98
2017-12-03T15:27:22.238Z,83.58
2017-12-03T15:29:49.688Z,83.68
2017-12-03T15:32:17.170Z,83.95
2017-12-03T15:34:44.657Z,83.87
2017-12-03T15:37:12.115Z,83.97
2017-12-03T15:39:39.566Z,84.05
2017-12-03T15:42:07.024Z,84.37
2017-12-03T15:44:34.462Z,84.42
2017-12-03T15:47:02.019Z,84.27
2017-12-03T15:49:29.450Z,83.82
2017-12-03T15:51:56.913Z,84.49
2017-12-03T15:54:24.348Z,84.36
2017-12-03T15:56:51.803Z,84.68
2017-12-03T15:59:19.263Z,85.07
2017-12-03T16:01:46.716Z,84.36
2017-12-03T16:04:14.127Z,84.94
2017-12-03T16:06:41.665Z,85.26
2017-12-03T16:09:09.135Z,84.94
2017-12-03T16:11:36.616Z,84.77
2017-12-03T16:14:04.042Z,85.05
2017-12-03T16:16:31.682Z,84.85
2017-12-03T16:18:59.120Z,85.12
2017-12-03T16:21:26.592Z,85.10
2017-12-03T16:23:54.052Z,85.29
2017-12-03T16:26:21.539Z,85.42
2017-12-03T16:28:49.036Z,85.79
2017-12-03T16:31:16.570Z,85.40
2017-12-03T16:33:43.978Z,85.15
2017-12-03T16:36:11.440Z,85.68
2017-12-03T16:38:38.845Z,85.73
2017-12-03T16:41:06.329Z,85.50
2017-12-03T16:43:33.757Z,85.46
2017-12-03T16:46:01.393Z,85.08
2017-12-03T16:48:28.858Z,90.81
2017-12-03T16:50:56.276Z,82.99
2017-12-03T16:53:23.800Z,84.16
2017-12-03T16:55:51.294Z,84.04
2017-12-03T16:58:18.882Z,84.64
2017-12-03T17:00:46.323Z,84.86
2017-12-03T17:03:13.790Z,85.29
2017-12-03T17:05:41.191Z,85.47
2017-12-03T17:08:08.724Z,84.89
2017-12-03T17:10:36.164Z,84.98
2017-12-03T17:13:03.671Z,84.90
2017-12-03T17:15:31.124Z,85.19
2017-12-03T17:17:58.582Z,85.05
2017-12-03T17:20:25.999Z,85.30
2017-12-03T17:22:53.459Z,85.30
2017-12-03T17:25:20.933Z,85.08
2017-12-03T17:27:48.400Z,85.62
2017-12-03T17:30:15.950Z,85.50
2017-12-03T17:32:43.405Z,86.00
2017-12-03T17:35:10.825Z,86.12
2017-12-03T17:37:38.268Z,86.01
2017-12-03T17:40:05.733Z,85.78
2017-12-03T17:42:33.350Z,85.79
2017-12-03T17:45:00.943Z,85.96
2017-12-03T17:47:28.419Z,85.95
2017-12-03T17:49:55.921Z,85.54
2017-12-03T17:52:23.370Z,85.76
2017-12-03T17:54:50.829Z,83.31
2017-12-03T17:57:18.293Z,83.71
2017-12-03T17:59:45.698Z,83.16
2017-12-03T18:02:13.106Z,83.79
2017-12-03T18:04:41.567Z,84.59
2017-12-03T18:07:08.974Z,84.44
2017-12-03T18:09:36.565Z,85.19
2017-12-03T18:12:04.142Z,84.81
2017-12-03T18:14:31.678Z,84.17
2017-12-03T18:16:59.107Z,84.56
2017-12-03T18:19:26.619Z,84.28
2017-12-03T18:21:54.058Z,84.17
2017-12-03T18:24:21.537Z,84.62
2017-12-03T18:26:48.954Z,84.27
2017-12-03T18:29:16.461Z,84.42
2017-12-03T18:31:43.865Z,84.95
2017-12-03T18:34:11.317Z,84.01
2017-12-03T18:36:38.734Z,83.72
2017-12-03T18:39:06.232Z,83.84
2017-12-03T18:41:33.696Z,83.21
2017-12-03T18:44:01.428Z,82.98
2017-12-03T18:46:28.858Z,82.96
2017-12-03T18:48:56.314Z,83.75
2017-12-03T18:51:23.712Z,83.05
2017-12-03T18:53:51.171Z,82.68
2017-12-03T18:56:18.612Z,83.19
2017-12-03T18:58:46.214Z,83.62
2017-12-03T19:01:13.618Z,83.53
2017-12-03T19:03:41.063Z,82.46
2017-12-03T19:06:08.470Z,82.50
2017-12-03T19:08:35.937Z,82.08
2017-12-03T19:11:03.354Z,82.41
2017-12-03T19:13:30.819Z,82.08
2017-12-03T19:15:58.266Z,82.08
2017-12-03T19:18:25.672Z,81.98
2017-12-03T19:20:53.110Z,82.12
2017-12-03T19:23:20.566Z,82.76
2017-12-03T19:25:48.014Z,82.88
2017-12-03T19:28:15.448Z,82.66
2017-12-03T19:30:42.901Z,82.61
2017-12-03T19:33:10.344Z,82.92
2017-12-03T19:35:37.824Z,83.37
2017-12-03T19:38:05.281Z,82.86
2017-12-03T19:40:32.930Z,83.06
2017-12-03T19:43:00.543Z,82.89
2017-12-03T19:45:28.012Z,82.80
2017-12-03T19:47:55.507Z,82.70
2017-12-03T19:50:23.033Z,82.56
2017-12-03T19:52:50.548Z,83.25
2017-12-03T19:55:18.022Z,83.48
2017-12-03T19:57:45.524Z,83.71
2017-12-03T20:00:13.009Z,83.59
2017-12-03T20:02:40.406Z,83.35
2017-12-03T20:05:07.908Z,82.84
2017-12-03T20:07:35.484Z,83.07
2017-12-03T20:10:03.013Z,82.59
2017-12-03T20:12:30.536Z,82.58
2017-12-03T20:14:58.072Z,82.44
2017-12-03T20:17:25.517Z,82.73
2017-12-03T20:19:52.932Z,82.94
2017-12-03T20:22:20.469Z,82.83
2017-12-03T20:24:47.966Z,82.78
2017-12-03T20:27:15.484Z,82.58
2017-12-03T20:29:42.874Z,82.89
2017-12-03T20:32:10.352Z,82.30
2017-12-03T20:34:37.899Z,82.21
2017-12-03T20:37:05.381Z,83.15
2017-12-03T20:39:32.828Z,83.31
2017-12-03T20:42:00.337Z,83.24
2017-12-03T20:44:27.823Z,83.83
2017-12-03T20:46:55.257Z,83.86
2017-12-03T20:49:22.791Z,84.45
2017-12-03T20:51:50.364Z,85.05
2017-12-03T20:54:17.823Z,85.33
2017-12-03T20:56:45.286Z,85.71
2017-12-03T20:59:13.303Z,85.69
2017-12-03T21:01:40.842Z,86.12
2017-12-03T21:04:08.255Z,86.30
2017-12-03T21:06:35.898Z,86.21
2017-12-03T21:09:03.346Z,86.44
2017-12-03T21:11:30.986Z,86.71
2017-12-03T21:13:58.410Z,86.39
2017-12-03T21:16:25.968Z,86.65
2017-12-03T21:18:53.385Z,86.56
2017-12-03T21:21:20.845Z,86.18
2017-12-03T21:23:48.278Z,86.25
2017-12-03T21:26:15.792Z,86.38
2017-12-03T21:28:43.204Z,86.11
2017-12-03T21:31:10.690Z,86.04
2017-12-03T21:33:38.155Z,86.49
2017-12-03T21:36:05.623Z,85.98
2017-12-03T21:38:33.158Z,86.02
2017-12-03T21:41:00.616Z,86.08
2017-12-03T21:43:28.070Z,86.30
2017-12-03T21:45:55.506Z,86.41
2017-12-03T21:48:23.073Z,86.49
2017-12-03T21:50:50.530Z,86.13
2017-12-03T21:53:18.033Z,86.16
2017-12-03T21:55:45.486Z,86.62
2017-12-03T21:58:12.931Z,86.43
2017-12-03T22:00:40.353Z,86.17
2017-12-03T22:03:07.925Z,86.26
2017-12-03T22:05:35.384Z,86.25
2017-12-03T22:08:02.859Z,86.03
2017-12-03T22:10:30.349Z,85.88
2017-12-03T22:12:59.132Z,85.86
2017-12-03T22:15:26.669Z,85.94
2017-12-03T22:17:59.436Z,85.89
2017-12-03T22:20:31.921Z,86.59
2017-12-03T22:23:04.698Z,86.67
2017-12-03T22:25:36.733Z,87.10
2017-12-03T22:28:09.151Z,86.88
2017-12-03T22:30:41.445Z,86.86
2017-12-03T22:33:13.598Z,86.63
2017-12-03T22:35:45.996Z,87.02
2017-12-03T22:38:18.478Z,86.60
2017-12-03T22:40:51.156Z,86.58
2017-12-03T22:43:18.592Z,86.63
2017-12-03T22:45:46.018Z,86.52
2017-12-03T22:48:13.572Z,86.26
2017-12-03T22:50:40.987Z,85.76
2017-12-03T22:53:08.438Z,85.81
2017-12-03T22:55:35.850Z,85.75
2017-12-03T22:58:03.369Z,85.27
2017-12-03T23:00:37.601Z,85.49
2017-12-03T23:03:05.064Z,85.17
2017-12-03T23:05:32.478Z,85.62
2017-12-03T23:08:00.102Z,85.63
2017-12-03T23:10:27.645Z,85.24
2017-12-03T23:12:55.185Z,85.64
2017-12-03T23:15:22.646Z,85.02
2017-12-03T23:17:50.063Z,84.83
2017-12-03T23:20:17.506Z,84.81
2017-12-03T23:22:44.944Z,84.45
2017-12-03T23:25:12.394Z,84.80
2017-12-03T23:27:39.809Z,85.24
2017-12-03T23:30:07.262Z,84.95
2017-12-03T23:32:34.671Z,84.92
2017-12-03T23:35:02.188Z,84.54
2017-12-03T23:37:29.669Z,84.77
2017-12-03T23:39:58.024Z,84.55
2017-12-03T23:42:25.620Z,84.51
2017-12-03T23:44:53.194Z,84.61
2017-12-03T23:47:20.611Z,84.43
2017-12-03T23:49:48.059Z,84.50
2017-12-03T23:52:15.622Z,84.92
2017-12-03T23:54:43.171Z,85.13
2017-12-03T23:57:10.563Z,84.64
2017-12-03T23:59:38.102Z,84.31
